Time,TemperatureF,DewpointF,PressureIn,WindDirection,WindDirectionDegrees,WindSpeedMPH,WindSpeedGustMPH,Humidity,HourlyPrecipIn,Conditions,Clouds,dailyrainin,SoftwareType,DateUTC
2013-06-13 00:04:00,60.3,55.0,29.77,NNE,26,15.0,18.0,83,0.00,,,0.00,weatherlink.com 1.10,2013-06-13 04:04:00,
2013-06-13 00:19:00,60.0,55.0,29.77,NW,312,3.0,13.0,83,0.00,,,0.00,weatherlink.com 1.10,2013-06-13 04:19:00,
2013-06-13 00:34:00,59.8,55.0,29.77,NNW,348,8.0,11.0,84,0.00,,,0.00,weatherlink.com 1.10,2013-06-13 04:34:00,
2013-06-13 00:49:00,59.5,55.0,29.76,NW,316,5.0,7.0,84,0.00,,,0.00,weatherlink.com 1.10,2013-06-13 04:49:00,
2013-06-13 01:04:00,58.7,55.0,29.77,WNW,288,2.0,5.0,86,0.00,,,0.00,weatherlink.com 1.10,2013-06-13 05:04:00,
2013-06-13 01:19:00,58.2,54.0,29.77,NW,309,3.0,5.0,87,0.00,,,0.00,weatherlink.com 1.10,2013-06-13 05:19:00,
2013-06-13 01:34:00,58.2,54.0,29.77,WNW,291,2.0,5.0,87,0.00,,,0.00,weatherlink.com 1.10,2013-06-13 05:34:00,
2013-06-13 01:49:00,58.6,55.0,29.77,NNW,334,4.0,8.0,86,0.00,,,0.00,weatherlink.com 1.10,2013-06-13 05:49:00,
2013-06-13 02:04:00,58.8,54.0,29.77,NW,324,5.0,8.0,84,0.00,,,0.00,weatherlink.com 1.10,2013-06-13 06:04:00,
2013-06-13 02:19:00,58.9,54.0,29.76,NW,316,3.0,8.0,83,0.00,,,0.00,weatherlink.com 1.10,2013-06-13 06:19:00,
2013-06-13 02:34:00,58.7,54.0,29.76,NW,305,1.0,4.0,83,0.00,,,0.00,weatherlink.com 1.10,2013-06-13 06:34:00,
2013-06-13 02:49:00,58.2,53.0,29.76,NW,310,2.0,3.0,84,0.00,,,0.00,weatherlink.com 1.10,2013-06-13 06:49:00,
2013-06-13 03:04:00,57.3,54.0,29.76,WNW,291,1.0,3.0,87,0.00,,,0.00,weatherlink.com 1.10,2013-06-13 07:04:00,
2013-06-13 03:19:00,57.0,54.0,29.77,West,269,3.0,4.0,88,0.00,,,0.00,weatherlink.com 1.10,2013-06-13 07:19:00,
2013-06-13 03:34:00,56.9,54.0,29.77,WNW,289,3.0,6.0,89,0.00,,,0.00,weatherlink.com 1.10,2013-06-13 07:34:00,
2013-06-13 03:49:00,56.9,54.0,29.77,NW,312,4.0,6.0,89,0.00,,,0.00,weatherlink.com 1.10,2013-06-13 07:49:00,
2013-06-13 04:04:00,57.2,54.0,29.77,NW,314,6.0,6.0,89,0.00,,,0.00,weatherlink.com 1.10,2013-06-13 08:04:00,
2013-06-13 04:20:00,57.5,54.0,29.77,NW,316,5.0,7.0,89,0.00,,,0.00,weatherlink.com 1.10,2013-06-13 08:20:00,
2013-06-13 04:34:00,57.6,54.0,29.78,NW,305,2.0,6.0,89,0.00,,,0.00,weatherlink.com 1.10,2013-06-13 08:34:00,
2013-06-13 04:50:00,57.2,54.0,29.79,West,274,4.0,5.0,89,0.00,,,0.00,weatherlink.com 1.10,2013-06-13 08:50:00,
2013-06-13 05:05:00,56.5,54.0,29.79,West,281,3.0,5.0,90,0.00,,,0.00,weatherlink.com 1.10,2013-06-13 09:05:00,
2013-06-13 05:20:00,56.0,54.0,29.80,NW,311,4.0,4.0,91,0.00,,,0.00,weatherlink.com 1.10,2013-06-13 09:20:00,
2013-06-13 05:35:00,56.5,54.0,29.79,NW,319,3.0,5.0,91,0.00,,,0.00,weatherlink.com 1.10,2013-06-13 09:35:00,
2013-06-13 05:50:00,57.0,54.0,29.80,NW,321,2.0,3.0,90,0.00,,,0.00,weatherlink.com 1.10,2013-06-13 09:50:00,
2013-06-13 06:05:00,57.5,55.0,29.81,NNW,329,0.0,4.0,90,0.00,,,0.00,weatherlink.com 1.10,2013-06-13 10:05:00,
2013-06-13 06:20:00,58.3,55.0,29.81,WNW,295,2.0,4.0,89,0.00,,,0.00,weatherlink.com 1.10,2013-06-13 10:20:00,
2013-06-13 06:35:00,59.2,56.0,29.81,NW,322,3.0,5.0,88,0.00,,,0.00,weatherlink.com 1.10,2013-06-13 10:35:00,
2013-06-13 06:50:00,60.1,56.0,29.81,NW,304,2.0,6.0,86,0.00,,,0.00,weatherlink.com 1.10,2013-06-13 10:50:00,
2013-06-13 07:05:00,60.8,56.0,29.81,NW,309,4.0,7.0,84,0.00,,,0.00,weatherlink.com 1.10,2013-06-13 11:05:00,
2013-06-13 07:20:00,61.4,56.0,29.81,NW,305,3.0,7.0,81,0.00,,,0.00,weatherlink.com 1.10,2013-06-13 11:20:00,
2013-06-13 07:35:00,62.1,55.0,29.81,NNW,333,3.0,6.0,77,0.00,,,0.00,weatherlink.com 1.10,2013-06-13 11:35:00,
2013-06-13 07:50:00,62.9,55.0,29.81,NNE,29,2.0,5.0,76,0.00,,,0.00,weatherlink.com 1.10,2013-06-13 11:50:00,
2013-06-13 08:05:00,63.1,55.0,29.82,NW,321,1.0,4.0,76,0.00,,,0.00,weatherlink.com 1.10,2013-06-13 12:05:00,
2013-06-13 08:20:00,63.6,55.0,29.81,North,3,2.0,4.0,74,0.00,,,0.00,weatherlink.com 1.10,2013-06-13 12:20:00,
2013-06-13 08:35:00,65.6,56.0,29.81,WNW,290,1.0,2.0,70,0.00,,,0.00,weatherlink.com 1.10,2013-06-13 12:35:00,
2013-06-13 08:50:00,66.2,57.0,29.80,West,279,0.0,2.0,72,0.00,,,0.00,weatherlink.com 1.10,2013-06-13 12:50:00,
2013-06-13 09:05:00,67.3,56.0,29.79,East,90,1.0,4.0,68,0.00,,,0.00,weatherlink.com 1.10,2013-06-13 13:05:00,
2013-06-13 09:20:00,67.0,57.0,29.80,SSE,149,2.0,5.0,71,0.00,,,0.00,weatherlink.com 1.10,2013-06-13 13:20:00,
2013-06-13 09:35:00,63.8,56.0,29.81,ENE,65,2.0,8.0,76,0.00,,,0.00,weatherlink.com 1.10,2013-06-13 13:35:00,
2013-06-13 09:50:00,62.7,54.0,29.80,ESE,108,0.0,7.0,73,0.00,,,0.00,weatherlink.com 1.10,2013-06-13 13:50:00,
2013-06-13 10:05:00,62.1,53.0,29.80,ESE,119,5.0,7.0,73,0.00,,,0.00,weatherlink.com 1.10,2013-06-13 14:05:00,
2013-06-13 10:20:00,62.3,52.0,29.80,ENE,66,3.0,9.0,70,0.00,,,0.00,weatherlink.com 1.10,2013-06-13 14:20:00,
2013-06-13 10:35:00,61.9,53.0,29.80,East,91,1.0,6.0,73,0.00,,,0.00,weatherlink.com 1.10,2013-06-13 14:35:00,
2013-06-13 10:50:00,62.1,53.0,29.81,SSE,155,2.0,6.0,73,0.00,,,0.00,weatherlink.com 1.10,2013-06-13 14:50:00,
2013-06-13 11:05:00,62.2,53.0,29.81,ENE,68,3.0,6.0,72,0.00,,,0.00,weatherlink.com 1.10,2013-06-13 15:05:00,
2013-06-13 11:21:00,63.0,53.0,29.80,ENE,58,1.0,7.0,71,0.00,,,0.00,weatherlink.com 1.10,2013-06-13 15:21:00,
2013-06-13 11:35:00,63.4,54.0,29.80,ENE,74,3.0,5.0,71,0.00,,,0.00,weatherlink.com 1.10,2013-06-13 15:35:00,
2013-06-13 11:50:00,61.7,53.0,29.81,SE,137,3.0,9.0,74,0.00,,,0.00,weatherlink.com 1.10,2013-06-13 15:50:00,
2013-06-13 12:05:00,61.6,54.0,29.81,SE,136,2.0,5.0,77,0.00,,,0.00,weatherlink.com 1.10,2013-06-13 16:05:00,
2013-06-13 12:20:00,61.2,54.0,29.82,SE,136,3.0,4.0,78,0.00,,,0.00,weatherlink.com 1.10,2013-06-13 16:20:00,
2013-06-13 12:35:00,60.8,54.0,29.79,SE,132,5.0,7.0,79,0.00,,,0.00,weatherlink.com 1.10,2013-06-13 16:35:00,
2013-06-13 12:50:00,61.1,54.0,29.79,SE,135,3.0,6.0,78,0.00,,,0.00,weatherlink.com 1.10,2013-06-13 16:50:00,
2013-06-13 13:05:00,60.7,53.0,29.79,SE,128,5.0,9.0,76,0.00,,,0.00,weatherlink.com 1.10,2013-06-13 17:05:00,
2013-06-13 13:20:00,59.5,53.0,29.79,ESE,111,0.0,5.0,80,0.00,,,0.00,weatherlink.com 1.10,2013-06-13 17:20:00,
2013-06-13 13:35:00,58.7,54.0,29.78,SE,134,0.0,6.0,85,0.00,,,0.00,weatherlink.com 1.10,2013-06-13 17:35:00,
2013-06-13 13:50:00,58.2,54.0,29.79,SE,141,1.0,4.0,87,0.01,,,0.01,weatherlink.com 1.10,2013-06-13 17:50:00,
2013-06-13 14:05:00,58.3,55.0,29.81,SW,233,2.0,2.0,87,0.01,,,0.01,weatherlink.com 1.10,2013-06-13 18:05:00,
2013-06-13 14:20:00,58.3,55.0,29.79,East,89,2.0,3.0,87,0.01,,,0.01,weatherlink.com 1.10,2013-06-13 18:20:00,
2013-06-13 14:35:00,57.8,55.0,29.76,ESE,118,3.0,5.0,89,0.02,,,0.02,weatherlink.com 1.10,2013-06-13 18:35:00,
2013-06-13 14:50:00,57.2,55.0,29.74,East,84,3.0,6.0,91,0.02,,,0.03,weatherlink.com 1.10,2013-06-13 18:50:00,
2013-06-13 15:05:00,56.7,54.0,29.75,SSE,152,4.0,11.0,91,0.03,,,0.04,weatherlink.com 1.10,2013-06-13 19:05:00,
2013-06-13 15:20:00,56.6,54.0,29.76,ESE,108,6.0,8.0,92,0.03,,,0.04,weatherlink.com 1.10,2013-06-13 19:20:00,
2013-06-13 15:35:00,56.4,55.0,29.77,East,100,5.0,8.0,93,0.02,,,0.04,weatherlink.com 1.10,2013-06-13 19:35:00,
2013-06-13 15:51:00,56.3,54.0,29.77,ESE,110,3.0,7.0,93,0.01,,,0.04,weatherlink.com 1.10,2013-06-13 19:51:00,
2013-06-13 16:06:00,56.9,55.0,29.76,ESE,110,2.0,8.0,92,0.00,,,0.04,weatherlink.com 1.10,2013-06-13 20:06:00,
2013-06-13 16:21:00,58.4,56.0,29.76,East,91,1.0,9.0,90,0.00,,,0.04,weatherlink.com 1.10,2013-06-13 20:21:00,
2013-06-13 16:36:00,59.6,56.0,29.74,East,101,3.0,8.0,87,0.00,,,0.04,weatherlink.com 1.10,2013-06-13 20:36:00,
2013-06-13 16:51:00,59.3,55.0,29.73,ESE,105,4.0,10.0,85,0.00,,,0.04,weatherlink.com 1.10,2013-06-13 20:51:00,
2013-06-13 17:06:00,58.2,54.0,29.74,NE,47,2.0,8.0,87,0.00,,,0.04,weatherlink.com 1.10,2013-06-13 21:06:00,
2013-06-13 17:21:00,57.8,54.0,29.72,ESE,118,0.0,10.0,88,0.00,,,0.04,weatherlink.com 1.10,2013-06-13 21:21:00,
2013-06-13 17:36:00,57.4,54.0,29.72,East,79,3.0,8.0,88,0.00,,,0.04,weatherlink.com 1.10,2013-06-13 21:36:00,
2013-06-13 17:51:00,56.8,54.0,29.70,East,99,5.0,12.0,90,0.00,,,0.04,weatherlink.com 1.10,2013-06-13 21:51:00,
2013-06-13 18:06:00,56.5,54.0,29.71,ENE,68,2.0,10.0,91,0.01,,,0.05,weatherlink.com 1.10,2013-06-13 22:06:00,
2013-06-13 18:21:00,56.5,54.0,29.70,ENE,69,3.0,6.0,91,0.01,,,0.05,weatherlink.com 1.10,2013-06-13 22:21:00,
2013-06-13 18:36:00,56.5,54.0,29.70,East,99,2.0,6.0,91,0.01,,,0.05,weatherlink.com 1.10,2013-06-13 22:36:00,
2013-06-13 18:51:00,56.3,54.0,29.70,ENE,58,4.0,9.0,91,0.01,,,0.05,weatherlink.com 1.10,2013-06-13 22:51:00,
2013-06-13 19:06:00,56.2,54.0,29.69,ENE,70,8.0,10.0,92,0.00,,,0.05,weatherlink.com 1.10,2013-06-13 23:06:00,
2013-06-13 19:21:00,56.1,54.0,29.70,ESE,119,3.0,9.0,92,0.00,,,0.05,weatherlink.com 1.10,2013-06-13 23:21:00,
2013-06-13 19:36:00,55.9,54.0,29.70,ENE,61,3.0,8.0,92,0.00,,,0.05,weatherlink.com 1.10,2013-06-13 23:36:00,
2013-06-13 19:51:00,55.8,54.0,29.69,ENE,75,6.0,8.0,92,0.00,,,0.05,weatherlink.com 1.10,2013-06-13 23:51:00,
2013-06-13 20:06:00,55.7,54.0,29.69,East,94,3.0,10.0,92,0.00,,,0.05,weatherlink.com 1.10,2013-06-14 00:06:00,
2013-06-13 20:21:00,55.7,54.0,29.67,ENE,74,6.0,11.0,93,0.00,,,0.05,weatherlink.com 1.10,2013-06-14 00:21:00,
2013-06-13 20:36:00,55.7,54.0,29.67,ESE,103,6.0,13.0,93,0.00,,,0.05,weatherlink.com 1.10,2013-06-14 00:36:00,
2013-06-13 20:51:00,55.8,54.0,29.69,ENE,58,3.0,12.0,94,0.00,,,0.05,weatherlink.com 1.10,2013-06-14 00:51:00,
2013-06-13 21:06:00,55.7,54.0,29.69,East,79,3.0,12.0,94,0.00,,,0.05,weatherlink.com 1.10,2013-06-14 01:06:00,
2013-06-13 21:21:00,55.5,54.0,29.69,NE,56,8.0,8.0,94,0.01,,,0.06,weatherlink.com 1.10,2013-06-14 01:21:00,
2013-06-13 21:36:00,55.0,54.0,29.69,East,84,5.0,11.0,95,0.04,,,0.09,weatherlink.com 1.10,2013-06-14 01:36:00,
2013-06-13 21:51:00,55.0,54.0,29.70,ENE,76,5.0,9.0,96,0.04,,,0.09,weatherlink.com 1.10,2013-06-14 01:51:00,
2013-06-13 22:06:00,54.7,54.0,29.69,ENE,62,2.0,11.0,97,0.05,,,0.10,weatherlink.com 1.10,2013-06-14 02:06:00,
2013-06-13 22:21:00,54.2,53.0,29.69,NE,49,7.0,12.0,96,0.05,,,0.11,weatherlink.com 1.10,2013-06-14 02:21:00,
2013-06-13 22:36:00,53.9,53.0,29.67,East,98,5.0,14.0,96,0.02,,,0.11,weatherlink.com 1.10,2013-06-14 02:36:00,
2013-06-13 22:51:00,53.9,53.0,29.65,ENE,65,14.0,15.0,96,0.02,,,0.11,weatherlink.com 1.10,2013-06-14 02:51:00,
2013-06-13 23:06:00,53.8,53.0,29.64,NE,42,10.0,14.0,96,0.01,,,0.11,weatherlink.com 1.10,2013-06-14 03:06:00,
2013-06-13 23:21:00,53.9,53.0,29.62,ENE,60,7.0,19.0,96,0.00,,,0.11,weatherlink.com 1.10,2013-06-14 03:21:00,
2013-06-13 23:36:00,53.9,53.0,29.63,ENE,59,8.0,14.0,97,0.02,,,0.13,weatherlink.com 1.10,2013-06-14 03:36:00,
2013-06-13 23:52:00,53.8,53.0,29.61,NE,45,12.0,21.0,97,0.09,,,0.20,weatherlink.com 1.10,2013-06-14 03:52:00,